createdAt,value
2023-01-06T14:42:09.505Z,57.80
2023-01-06T14:44:44.396Z,58.30
2023-01-06T14:47:17.718Z,62.97
2023-01-06T14:49:53.759Z,60.10
2023-01-06T14:52:28.134Z,66.50
2023-01-06T14:54:56.349Z,56.30
2023-01-06T14:57:28.036Z,60.30
2023-01-06T15:00:14.992Z,61.00
2023-01-06T15:02:46.602Z,59.43
2023-01-06T15:05:20.868Z,57.90
2023-01-06T15:08:03.274Z,57.03
2023-01-06T15:10:35.234Z,56.90
2023-01-06T15:13:05.210Z,54.53
2023-01-06T15:15:34.856Z,56.77
2023-01-06T15:18:03.976Z,53.17
2023-01-06T15:20:34.768Z,57.60
2023-01-06T15:23:03.603Z,62.10
2023-01-06T15:25:33.157Z,59.03
2023-01-06T15:28:01.222Z,54.00
2023-01-06T15:30:34.790Z,54.03
2023-01-06T15:33:04.715Z,58.93
2023-01-06T15:35:33.982Z,58.93
2023-01-06T15:38:05.186Z,61.50
2023-01-06T15:40:33.846Z,56.03
2023-01-06T15:43:02.060Z,55.40
2023-01-06T15:45:33.748Z,54.87
2023-01-06T15:48:04.371Z,56.77
2023-01-06T15:50:35.790Z,55.50
2023-01-06T15:53:06.809Z,50.00
2023-01-06T15:55:37.382Z,52.00
2023-01-06T15:58:09.393Z,55.13
2023-01-06T16:00:45.418Z,49.33
2023-01-06T16:03:20.451Z,54.47
2023-01-06T16:05:51.102Z,51.60
2023-01-06T16:08:25.745Z,56.27
2023-01-06T16:11:13.027Z,58.97
2023-01-06T16:13:41.635Z,54.87
2023-01-06T16:16:26.849Z,52.77
2023-01-06T16:18:55.321Z,57.50
2023-01-06T16:21:26.729Z,57.83
2023-01-06T16:23:57.735Z,59.87
2023-01-06T16:26:28.876Z,50.97
2023-01-06T16:28:58.595Z,58.10
2023-01-06T16:31:33.164Z,59.70
2023-01-06T16:34:18.202Z,52.23
2023-01-06T16:36:46.401Z,52.73
2023-01-06T16:39:14.614Z,57.10
2023-01-06T16:42:38.055Z,54.40
2023-01-06T16:45:10.297Z,57.47
2023-01-06T16:47:40.153Z,51.23
2023-01-06T16:50:34.240Z,56.30
2023-01-06T16:53:06.977Z,55.93
2023-01-06T16:55:35.341Z,61.23
2023-01-06T16:58:12.110Z,57.03
2023-01-06T17:00:44.001Z,52.90
2023-01-06T17:03:17.186Z,61.73
2023-01-06T17:05:45.344Z,54.03
2023-01-06T17:08:16.409Z,58.03
2023-01-06T17:10:45.396Z,54.37
2023-01-06T17:13:34.029Z,55.80
2023-01-06T17:16:07.544Z,58.20
2023-01-06T17:18:44.104Z,56.60
2023-01-06T17:21:15.313Z,57.73
2023-01-06T17:23:47.101Z,58.30
2023-01-06T17:26:17.119Z,57.40
2023-01-06T17:28:46.435Z,56.77
2023-01-06T17:31:17.633Z,59.90
2023-01-06T17:33:47.824Z,58.37
2023-01-06T17:36:25.230Z,52.87
2023-01-06T17:38:53.758Z,58.73
2023-01-06T17:41:22.856Z,63.30
2023-01-06T17:43:50.899Z,57.23
2023-01-06T17:46:24.252Z,61.60
2023-01-06T17:49:01.815Z,56.33
2023-01-06T17:51:29.905Z,54.63
2023-01-06T17:54:15.623Z,56.63
2023-01-06T17:56:43.729Z,60.20
2023-01-06T17:59:18.127Z,54.10
2023-01-06T18:01:46.233Z,63.40
2023-01-06T18:04:16.763Z,56.33
2023-01-06T18:06:52.576Z,67.03
2023-01-06T18:09:23.501Z,59.17
2023-01-06T18:11:53.502Z,69.23
2023-01-06T18:14:25.284Z,56.63
2023-01-06T18:16:56.679Z,64.33
2023-01-06T18:19:31.914Z,58.70
2023-01-06T18:22:00.463Z,57.57
2023-01-06T18:24:33.315Z,57.27
2023-01-06T18:27:03.226Z,61.40
2023-01-06T18:29:36.356Z,62.10
2023-01-06T18:32:24.447Z,47.80
2023-01-06T18:34:55.370Z,55.40
2023-01-06T18:37:26.261Z,58.50
2023-01-06T18:39:58.196Z,64.33
2023-01-06T18:42:28.998Z,54.27
2023-01-06T18:45:18.212Z,54.07
2023-01-06T18:47:51.179Z,55.90
2023-01-06T18:50:28.835Z,60.97
2023-01-06T18:52:58.292Z,62.93
2023-01-06T18:55:32.117Z,55.00
2023-01-06T18:58:02.754Z,56.70
2023-01-06T19:00:40.612Z,59.37
2023-01-06T19:03:31.127Z,71.30
2023-01-06T19:06:23.230Z,62.67
2023-01-06T19:08:52.347Z,66.70
2023-01-06T19:11:23.415Z,59.30
2023-01-06T19:13:54.087Z,67.93
2023-01-06T19:16:29.273Z,63.33
2023-01-06T19:19:14.502Z,65.17
2023-01-06T19:21:44.837Z,54.80
2023-01-06T19:24:38.705Z,55.80
2023-01-06T19:27:22.337Z,58.30
2023-01-06T19:29:50.392Z,58.30
2023-01-06T19:32:18.424Z,61.40
2023-01-06T19:34:46.539Z,65.33
2023-01-06T19:37:18.646Z,60.13
2023-01-06T19:39:50.345Z,63.40
2023-01-06T19:42:22.273Z,52.90
2023-01-06T19:44:54.238Z,61.33
2023-01-06T19:47:25.273Z,57.53
2023-01-06T19:49:57.834Z,61.13
2023-01-06T19:52:39.061Z,55.90
2023-01-06T19:55:19.964Z,60.40
2023-01-06T19:57:51.628Z,56.90
2023-01-06T20:00:25.807Z,55.90
2023-01-06T20:02:57.544Z,60.27
2023-01-06T20:05:26.691Z,54.17
2023-01-06T20:07:56.075Z,49.00
2023-01-06T20:10:24.568Z,56.83
2023-01-06T20:12:52.592Z,54.80
2023-01-06T20:15:20.724Z,51.57
2023-01-06T20:17:48.826Z,47.77
2023-01-06T20:20:16.993Z,49.03
2023-01-06T20:22:45.165Z,47.53
2023-01-06T20:25:15.454Z,44.70
2023-01-06T20:27:43.503Z,39.30
2023-01-06T20:30:12.235Z,47.77
2023-01-06T20:32:40.375Z,48.10
2023-01-06T20:35:09.553Z,48.37
2023-01-06T20:37:39.545Z,51.60
2023-01-06T20:40:09.527Z,50.93
2023-01-06T20:42:38.931Z,55.43
2023-01-06T20:45:08.084Z,49.47
2023-01-06T20:47:36.116Z,56.23
2023-01-06T20:50:06.981Z,55.93
2023-01-06T20:52:35.227Z,53.80
2023-01-06T20:55:03.420Z,59.83
2023-01-06T20:57:31.567Z,66.20
2023-01-06T21:00:01.063Z,68.47
2023-01-06T21:02:29.319Z,64.50
2023-01-06T21:04:57.462Z,64.93
2023-01-06T21:07:25.562Z,69.87
2023-01-06T21:09:53.622Z,62.60
2023-01-06T21:12:21.682Z,70.63
2023-01-06T21:14:49.744Z,61.13
2023-01-06T21:17:19.298Z,82.80
2023-01-06T21:19:47.986Z,75.00
2023-01-06T21:22:16.037Z,68.53
2023-01-06T21:24:44.110Z,76.50
2023-01-06T21:27:12.252Z,77.07
2023-01-06T21:29:40.284Z,81.03
2023-01-06T21:32:08.382Z,68.30
2023-01-06T21:34:37.805Z,81.73
2023-01-06T21:37:06.059Z,86.00
2023-01-06T21:39:34.275Z,70.00
2023-01-06T21:42:19.801Z,62.73
2023-01-06T21:44:48.898Z,71.37
2023-01-06T21:47:17.172Z,71.93
2023-01-06T21:49:46.708Z,84.83
2023-01-06T21:52:15.916Z,77.20
2023-01-06T21:54:45.274Z,72.50
2023-01-06T21:57:14.114Z,70.30
2023-01-06T21:59:42.257Z,80.27
2023-01-06T22:02:10.657Z,82.27
2023-01-06T22:04:38.812Z,81.73
2023-01-06T22:07:10.089Z,76.00
2023-01-06T22:09:39.978Z,77.37
2023-01-06T22:12:10.075Z,76.23
2023-01-06T22:14:38.658Z,77.60
2023-01-06T22:17:08.024Z,70.37
2023-01-06T22:19:36.730Z,74.33
2023-01-06T22:22:05.583Z,77.10
2023-01-06T22:24:36.248Z,84.50
2023-01-06T22:27:04.440Z,76.80
2023-01-06T22:29:32.479Z,76.93
2023-01-06T22:32:03.188Z,80.33
2023-01-06T22:34:31.528Z,75.17
2023-01-06T22:36:59.816Z,72.57
2023-01-06T22:39:27.957Z,73.63
2023-01-06T22:41:57.449Z,70.70
2023-01-06T22:44:25.997Z,81.07
2023-01-06T22:46:54.103Z,73.63
2023-01-06T22:49:22.160Z,74.67
2023-01-06T22:51:50.197Z,68.07
2023-01-06T22:54:18.386Z,83.17
2023-01-06T22:56:46.448Z,69.77
2023-01-06T22:59:15.829Z,73.77
2023-01-06T23:01:44.011Z,63.97
2023-01-06T23:04:13.671Z,63.67
2023-01-06T23:06:42.159Z,80.00
2023-01-06T23:09:10.186Z,78.47
2023-01-06T23:11:41.752Z,67.90
2023-01-06T23:14:11.261Z,72.40
2023-01-06T23:16:42.295Z,79.43
2023-01-06T23:19:13.341Z,66.63
2023-01-06T23:21:42.331Z,71.77
2023-01-06T23:24:11.499Z,76.40
2023-01-06T23:26:41.473Z,76.87
2023-01-06T23:29:09.958Z,65.40
2023-01-06T23:31:41.964Z,78.53
2023-01-06T23:34:11.819Z,68.87
2023-01-06T23:36:40.245Z,71.60
2023-01-06T23:39:10.008Z,82.80
2023-01-06T23:41:38.828Z,64.83
2023-01-06T23:44:07.236Z,69.90
2023-01-06T23:46:37.827Z,68.73
2023-01-06T23:49:08.396Z,70.23
2023-01-06T23:51:36.498Z,78.87
2023-01-06T23:54:06.232Z,62.90
2023-01-06T23:56:36.324Z,66.27
2023-01-06T23:59:06.266Z,72.00
